createdAt,value
2022-11-02T00:00:46.442Z,100098.06
2022-11-02T00:03:29.358Z,100097.02
2022-11-02T00:05:56.415Z,100096.34
2022-11-02T00:08:23.363Z,100095.41
2022-11-02T00:10:52.806Z,100096.56
2022-11-02T00:13:19.562Z,100098.09
2022-11-02T00:15:47.915Z,100100.13
2022-11-02T00:18:15.122Z,100106.02
2022-11-02T00:20:43.190Z,100107.34
2022-11-02T00:23:12.986Z,100107.44
2022-11-02T00:25:50.093Z,100107.84
2022-11-02T00:28:17.441Z,100108.09
2022-11-02T00:30:52.190Z,100113.22
2022-11-02T00:33:19.722Z,100116.69
2022-11-02T00:35:46.972Z,100119.63
2022-11-02T00:38:14.133Z,100117.07
2022-11-02T00:40:45.894Z,100118.19
2022-11-02T00:43:14.864Z,100121.23
2022-11-02T00:45:42.037Z,100114.96
2022-11-02T00:48:08.871Z,100114.96
2022-11-02T00:50:35.486Z,100117.63
2022-11-02T00:53:03.441Z,100115.88
2022-11-02T00:55:32.121Z,100116.80
2022-11-02T00:58:08.834Z,100116.15
2022-11-02T01:00:36.189Z,100118.65
2022-11-02T01:03:06.869Z,100121.86
2022-11-02T01:05:33.999Z,100119.52
2022-11-02T01:08:00.883Z,100118.34
2022-11-02T01:10:28.011Z,100119.74
2022-11-02T01:12:56.881Z,100120.27
2022-11-02T01:15:24.145Z,100126.45
2022-11-02T01:17:51.944Z,100126.09
2022-11-02T01:20:18.695Z,100123.02
2022-11-02T01:22:49.766Z,100120.83
2022-11-02T01:25:17.433Z,100122.38
2022-11-02T01:27:52.282Z,100123.17
2022-11-02T01:30:18.952Z,100119.14
2022-11-02T01:32:45.744Z,100117.95
2022-11-02T01:35:12.535Z,100113.14
2022-11-02T01:37:39.243Z,100115.13
2022-11-02T01:40:08.240Z,100109.27
2022-11-02T01:42:37.610Z,100109.06
2022-11-02T01:45:09.542Z,100108.55
2022-11-02T01:47:47.542Z,100107.71
2022-11-02T01:50:25.194Z,100110.35
2022-11-02T01:52:54.398Z,100105.04
2022-11-02T01:55:29.194Z,100101.77
2022-11-02T01:58:09.282Z,100104.01
2022-11-02T02:00:39.140Z,100106.70
2022-11-02T02:03:10.774Z,100110.08
2022-11-02T02:05:48.443Z,100110.42
2022-11-02T02:08:21.403Z,100105.44
2022-11-02T02:10:56.598Z,100105.96
2022-11-02T02:13:26.267Z,100106.14
2022-11-02T02:16:21.357Z,100110.98
2022-11-02T02:19:03.955Z,100111.73
2022-11-02T02:22:11.780Z,100114.38
2022-11-02T02:24:44.892Z,100114.28
2022-11-02T02:27:34.061Z,100112.81
2022-11-02T02:30:11.365Z,100116.31
2022-11-02T02:33:19.568Z,100115.12
2022-11-02T02:36:00.336Z,100114.50
2022-11-02T02:38:34.641Z,100115.34
2022-11-02T02:41:27.101Z,100116.38
2022-11-02T02:43:58.274Z,100111.02
2022-11-02T02:46:50.988Z,100112.22
2022-11-02T02:49:26.968Z,100114.34
2022-11-02T02:51:57.484Z,100113.19
2022-11-02T02:54:34.291Z,100114.92
2022-11-02T02:57:18.632Z,100110.30
2022-11-02T02:59:56.686Z,100112.84
2022-11-02T03:02:39.756Z,100114.70
2022-11-02T03:05:25.693Z,100118.16
2022-11-02T03:07:59.328Z,100118.22
2022-11-02T03:10:40.581Z,100119.55
2022-11-02T03:13:33.343Z,100123.35
2022-11-02T03:16:56.078Z,100118.73
2022-11-02T03:19:33.224Z,100120.41
2022-11-02T03:22:21.221Z,100122.64
2022-11-02T03:25:14.123Z,100119.79
2022-11-02T03:28:09.285Z,100117.77
2022-11-02T03:30:44.410Z,100122.07
2022-11-02T03:33:31.384Z,100124.75
2022-11-02T03:36:13.669Z,100123.39
2022-11-02T03:39:03.711Z,100121.85
2022-11-02T03:41:32.462Z,100121.95
2022-11-02T03:44:07.075Z,100129.35
2022-11-02T03:46:38.233Z,100127.33
2022-11-02T03:49:08.583Z,100126.66
2022-11-02T03:51:38.119Z,100125.20
2022-11-02T03:54:26.785Z,100125.84
2022-11-02T03:56:59.009Z,100125.60
2022-11-02T03:59:33.194Z,100128.40
2022-11-02T04:02:02.108Z,100132.56
2022-11-02T04:04:30.314Z,100133.83
2022-11-02T04:11:34.566Z,100127.92
2022-11-02T04:14:20.345Z,100127.45
2022-11-02T04:16:47.364Z,100132.02
2022-11-02T04:19:29.372Z,100134.81
2022-11-02T04:22:17.863Z,100129.74
2022-11-02T04:25:03.515Z,100133.06
2022-11-02T04:27:32.791Z,100128.73
2022-11-02T04:29:59.411Z,100128.92
2022-11-02T04:32:44.901Z,100128.46
2022-11-02T04:35:11.812Z,100128.63
2022-11-02T04:38:01.238Z,100128.27
2022-11-02T04:40:28.178Z,100128.02
2022-11-02T04:42:54.850Z,100128.44
2022-11-02T04:45:22.936Z,100135.19
2022-11-02T04:47:49.679Z,100134.03
2022-11-02T04:50:21.339Z,100132.96
2022-11-02T04:52:55.633Z,100133.92
2022-11-02T04:55:22.761Z,100127.88
2022-11-02T04:57:52.725Z,100129.46
2022-11-02T05:00:21.558Z,100131.99
2022-11-02T05:02:50.106Z,100128.60
2022-11-02T05:05:18.136Z,100128.65
2022-11-02T05:07:45.335Z,100130.30
2022-11-02T05:10:18.192Z,100130.70
2022-11-02T05:12:45.674Z,100135.82
2022-11-02T05:15:15.113Z,100130.15
2022-11-02T05:17:47.958Z,100136.15
2022-11-02T05:20:15.666Z,100134.23
2022-11-02T05:22:44.104Z,100131.81
2022-11-02T05:25:14.509Z,100132.34
2022-11-02T05:27:45.102Z,100130.39
2022-11-02T05:30:12.185Z,100134.74
2022-11-02T05:32:39.046Z,100138.64
2022-11-02T05:35:06.862Z,100137.95
2022-11-02T05:37:33.771Z,100143.77
2022-11-02T05:40:00.811Z,100140.87
2022-11-02T05:42:28.732Z,100140.16
2022-11-02T05:44:55.872Z,100139.61
2022-11-02T05:47:22.871Z,100142.52
2022-11-02T05:49:52.939Z,100143.85
2022-11-02T05:52:20.363Z,100145.21
2022-11-02T05:54:47.232Z,100145.69
2022-11-02T05:57:13.990Z,100145.67
2022-11-02T05:59:43.867Z,100149.85
2022-11-02T06:02:16.477Z,100150.20
2022-11-02T06:04:43.301Z,100148.63
2022-11-02T06:07:13.085Z,100150.24
2022-11-02T06:09:40.275Z,100152.17
2022-11-02T06:12:07.645Z,100155.48
2022-11-02T06:14:34.533Z,100159.52
2022-11-02T06:17:01.881Z,100154.80
2022-11-02T06:19:28.565Z,100155.55
2022-11-02T06:21:56.686Z,100154.81
2022-11-02T06:24:24.063Z,100157.55
2022-11-02T06:26:51.699Z,100160.61
2022-11-02T06:29:21.527Z,100157.05
2022-11-02T06:31:48.378Z,100164.31
2022-11-02T06:34:15.676Z,100163.08
2022-11-02T06:36:42.340Z,100164.84
2022-11-02T06:39:09.598Z,100168.14
2022-11-02T06:41:36.755Z,100170.87
2022-11-02T06:44:03.674Z,100174.15
2022-11-02T06:46:30.772Z,100173.11
2022-11-02T06:49:01.588Z,100170.98
2022-11-02T06:51:32.096Z,100176.34
2022-11-02T06:54:04.626Z,100175.41
2022-11-02T06:56:35.648Z,100173.78
2022-11-02T06:59:02.295Z,100173.51
2022-11-02T07:01:29.176Z,100176.19
2022-11-02T07:03:57.022Z,100178.57
2022-11-02T07:06:23.758Z,100177.73
2022-11-02T07:08:50.633Z,100184.39
2022-11-02T07:11:17.450Z,100184.93
2022-11-02T07:13:44.375Z,100183.39
2022-11-02T07:16:11.291Z,100185.91
2022-11-02T07:18:38.393Z,100192.13
2022-11-02T07:24:06.969Z,100196.08
2022-11-02T07:26:36.757Z,100194.90
2022-11-02T07:29:12.511Z,100193.02
2022-11-02T07:31:45.367Z,100192.36
2022-11-02T07:34:16.877Z,100185.65
2022-11-02T07:36:44.431Z,100188.70
2022-11-02T07:39:13.983Z,100193.67
2022-11-02T07:41:41.179Z,100187.25
2022-11-02T07:44:18.221Z,100188.10
2022-11-02T07:46:48.706Z,100185.61
2022-11-02T07:49:21.696Z,100187.30
2022-11-02T07:52:03.549Z,100186.39
2022-11-02T07:54:36.382Z,100189.02
2022-11-02T07:57:05.533Z,100185.48
2022-11-02T07:59:33.003Z,100183.12
2022-11-02T08:02:02.800Z,100183.00
2022-11-02T08:04:33.187Z,100178.80
2022-11-02T08:07:10.091Z,100187.16
2022-11-02T08:09:38.945Z,100179.92
2022-11-02T08:12:14.180Z,100178.80
2022-11-02T08:14:42.476Z,100175.26
2022-11-02T08:17:14.248Z,100176.23
2022-11-02T08:19:55.666Z,100178.30
2022-11-02T08:22:24.739Z,100181.50
2022-11-02T08:24:55.132Z,100180.35
2022-11-02T08:27:22.081Z,100184.46
2022-11-02T08:29:50.665Z,100183.88
2022-11-02T08:32:19.513Z,100179.96
2022-11-02T08:34:50.685Z,100178.05
2022-11-02T08:37:17.877Z,100175.16
2022-11-02T08:39:47.927Z,100174.17
2022-11-02T08:42:21.009Z,100172.66
2022-11-02T08:44:50.181Z,100169.45
2022-11-02T08:47:21.061Z,100165.83
2022-11-02T08:49:48.049Z,100163.20
2022-11-02T08:52:21.457Z,100158.83
2022-11-02T08:54:57.374Z,100155.92
2022-11-02T08:57:25.532Z,100158.46
2022-11-02T09:00:02.264Z,100148.79
2022-11-02T09:02:35.173Z,100149.10
2022-11-02T09:05:02.357Z,100153.83
2022-11-02T09:07:30.390Z,100154.66
2022-11-02T09:10:10.314Z,100158.16
2022-11-02T09:12:40.600Z,100161.08
2022-11-02T09:15:11.562Z,100164.98
2022-11-02T09:17:49.415Z,100161.36
2022-11-02T09:20:18.618Z,100161.98
2022-11-02T09:22:47.054Z,100156.70
2022-11-02T09:25:22.791Z,100160.23
2022-11-02T09:27:59.884Z,100164.20
2022-11-02T09:30:31.721Z,100162.37
2022-11-02T09:33:06.519Z,100154.88
2022-11-02T09:35:39.967Z,100154.27
2022-11-02T09:38:07.435Z,100159.58
2022-11-02T09:40:51.689Z,100157.75
2022-11-02T09:43:53.602Z,100161.35
2022-11-02T09:46:29.916Z,100158.23
2022-11-02T09:49:11.522Z,100160.38
2022-11-02T09:51:49.663Z,100167.25
2022-11-02T09:54:37.134Z,100157.20
2022-11-02T09:57:12.748Z,100155.63
2022-11-02T09:59:43.983Z,100151.49
2022-11-02T10:02:21.522Z,100152.11
2022-11-02T10:05:12.994Z,100150.47
2022-11-02T10:07:59.709Z,100146.17
2022-11-02T10:10:41.892Z,100144.45
2022-11-02T10:13:48.214Z,100147.60
2022-11-02T10:16:55.044Z,100144.71
2022-11-02T10:19:27.760Z,100152.89
2022-11-02T10:21:59.200Z,100152.34
2022-11-02T10:24:49.200Z,100155.17
2022-11-02T10:27:26.802Z,100149.81
2022-11-02T10:30:04.279Z,100151.29
2022-11-02T10:32:37.407Z,100148.64
2022-11-02T10:35:51.492Z,100153.39
2022-11-02T10:38:14.797Z,100146.25
2022-11-02T10:41:04.659Z,100147.83
2022-11-02T10:44:01.781Z,100149.10
2022-11-02T10:46:50.280Z,100154.91
2022-11-02T10:49:35.269Z,100148.86
2022-11-02T10:52:04.577Z,100141.09
2022-11-02T10:54:34.509Z,100144.04
2022-11-02T10:57:13.219Z,100150.05
2022-11-02T10:59:44.095Z,100157.17
2022-11-02T11:02:15.055Z,100160.58
2022-11-02T11:04:43.549Z,100159.04
2022-11-02T11:07:26.261Z,100157.58
2022-11-02T11:09:57.181Z,100160.45
2022-11-02T11:12:33.778Z,100156.27
2022-11-02T11:20:42.728Z,100145.18
2022-11-02T11:23:24.181Z,100149.84
2022-11-02T11:25:59.555Z,100154.02
2022-11-02T11:28:31.975Z,100153.45
2022-11-02T11:31:14.207Z,100148.40
2022-11-02T11:33:57.470Z,100148.02
2022-11-02T11:36:31.908Z,100150.03
2022-11-02T11:39:03.617Z,100149.59
2022-11-02T11:41:32.706Z,100148.73
2022-11-02T11:44:02.053Z,100149.75
2022-11-02T11:46:54.051Z,100152.16
2022-11-02T11:49:41.501Z,100148.95
2022-11-02T11:52:22.758Z,100146.95
2022-11-02T11:54:59.297Z,100147.27
2022-11-02T11:57:34.351Z,100145.57
2022-11-02T12:00:22.481Z,100146.38
2022-11-02T12:03:05.904Z,100148.29
2022-11-02T12:05:50.428Z,100150.68
2022-11-02T12:08:35.567Z,100148.34
2022-11-02T12:11:19.744Z,100144.33
2022-11-02T12:14:06.425Z,100148.19
2022-11-02T12:16:53.075Z,100143.97
2022-11-02T12:19:35.134Z,100144.33
2022-11-02T12:22:21.395Z,100145.91
2022-11-02T12:25:13.372Z,100143.92
2022-11-02T12:27:53.540Z,100143.85
2022-11-02T12:30:34.195Z,100146.80
2022-11-02T12:33:23.651Z,100143.92
2022-11-02T12:36:16.242Z,100144.70
2022-11-02T12:39:06.180Z,100143.59
2022-11-02T12:41:52.517Z,100142.66
2022-11-02T12:44:45.519Z,100144.75
2022-11-02T12:47:30.115Z,100149.74
2022-11-02T12:50:28.969Z,100148.19
2022-11-02T12:53:19.668Z,100143.84
2022-11-02T12:55:52.099Z,100147.23
2022-11-02T12:58:28.543Z,100143.49
2022-11-02T13:01:07.093Z,100144.73
2022-11-02T13:04:03.522Z,100146.08
2022-11-02T13:06:36.622Z,100150.89
2022-11-02T13:09:10.183Z,100145.48
2022-11-02T13:11:44.678Z,100144.64
2022-11-02T13:14:16.285Z,100148.67
2022-11-02T13:16:50.088Z,100160.45
2022-11-02T13:19:28.641Z,100160.95
2022-11-02T13:21:57.748Z,100167.82
2022-11-02T13:24:33.197Z,100167.88
2022-11-02T13:27:33.472Z,100170.86
2022-11-02T13:29:55.323Z,100166.60
2022-11-02T13:32:34.066Z,100162.39
2022-11-02T13:35:45.862Z,100161.71
2022-11-02T13:38:26.409Z,100159.99
2022-11-02T13:41:02.003Z,100170.11
2022-11-02T13:43:56.640Z,100169.54
2022-11-02T13:46:53.208Z,100174.86
2022-11-02T13:49:34.957Z,100170.50
2022-11-02T13:52:14.891Z,100171.60
2022-11-02T13:57:39.591Z,100169.96
2022-11-02T14:00:31.221Z,100169.23
2022-11-02T14:03:02.690Z,100166.80
2022-11-02T14:05:35.312Z,100164.96
2022-11-02T14:08:12.524Z,100167.23
2022-11-02T14:10:40.834Z,100167.09
2022-11-02T14:13:16.825Z,100174.35
2022-11-02T14:15:43.749Z,100165.63
2022-11-02T14:18:13.213Z,100168.14
2022-11-02T14:20:47.092Z,100166.61
2022-11-02T14:23:13.977Z,100171.31
2022-11-02T14:25:49.294Z,100171.73
2022-11-02T14:28:22.193Z,100175.41
2022-11-02T14:30:54.430Z,100171.56
2022-11-02T14:33:57.927Z,100177.95
2022-11-02T14:36:34.031Z,100182.59
2022-11-02T14:39:10.256Z,100180.84
2022-11-02T14:42:01.950Z,100181.09
2022-11-02T14:44:45.118Z,100184.27
2022-11-02T14:47:18.209Z,100185.79
2022-11-02T14:49:55.990Z,100186.98
2022-11-02T14:52:33.438Z,100186.42
2022-11-02T14:55:09.016Z,100194.68
2022-11-02T14:57:39.422Z,100196.40
2022-11-02T15:00:36.235Z,100191.23
2022-11-02T15:03:23.388Z,100185.19
2022-11-02T15:29:46.424Z,100197.40
2022-11-02T15:32:27.674Z,100201.23
2022-11-02T15:34:57.000Z,100199.40
2022-11-02T15:37:29.318Z,100196.98
2022-11-02T15:40:00.332Z,100200.22
2022-11-02T15:42:38.132Z,100205.67
2022-11-02T15:45:56.891Z,100202.25
2022-11-02T15:48:48.382Z,100198.64
2022-11-02T15:51:16.415Z,100207.69
2022-11-02T15:53:47.245Z,100213.73
2022-11-02T15:56:37.860Z,100218.23
2022-11-02T15:59:18.116Z,100224.29
2022-11-02T16:01:46.607Z,100230.52
2022-11-02T16:04:22.443Z,100238.36
2022-11-02T16:06:50.694Z,100241.95
2022-11-02T16:09:36.794Z,100248.13
2022-11-02T16:12:17.295Z,100253.34
2022-11-02T16:15:13.509Z,100259.33
2022-11-02T16:17:42.487Z,100265.23
2022-11-02T16:20:35.294Z,100261.84
2022-11-02T16:23:05.756Z,100260.02
2022-11-02T16:25:45.189Z,100258.23
2022-11-02T16:28:33.509Z,100266.88
2022-11-02T16:31:17.945Z,100275.50
2022-11-02T16:33:55.368Z,100274.08
2022-11-02T16:36:29.336Z,100275.34
2022-11-02T16:39:00.550Z,100274.30
2022-11-02T16:41:36.738Z,100275.85
2022-11-02T16:44:16.426Z,100273.89
2022-11-02T16:47:02.492Z,100279.51
2022-11-02T16:49:30.948Z,100273.86
2022-11-02T16:52:23.984Z,100279.45
2022-11-02T16:54:52.793Z,100287.77
2022-11-02T16:57:41.795Z,100295.01
2022-11-02T17:00:20.924Z,100299.65
2022-11-02T17:02:50.902Z,100302.98
2022-11-02T17:05:24.889Z,100303.42
2022-11-02T17:08:09.738Z,100304.02
2022-11-02T17:10:39.333Z,100304.99
2022-11-02T17:13:20.451Z,100306.09
2022-11-02T17:15:51.616Z,100303.34
2022-11-02T17:18:22.914Z,100302.06
2022-11-02T17:21:29.715Z,100304.05
2022-11-02T17:23:59.183Z,100299.33
2022-11-02T17:26:31.923Z,100301.90
2022-11-02T17:29:03.233Z,100306.81
2022-11-02T17:31:33.516Z,100306.44
2022-11-02T17:34:09.901Z,100308.21
2022-11-02T17:36:49.290Z,100308.27
2022-11-02T17:39:19.554Z,100309.82
2022-11-02T17:42:17.533Z,100309.66
2022-11-02T17:44:45.907Z,100313.09
2022-11-02T17:47:20.892Z,100313.20
2022-11-02T17:49:52.487Z,100315.21
2022-11-02T17:52:20.824Z,100325.38
2022-11-02T17:54:49.829Z,100330.53
2022-11-02T17:57:19.461Z,100333.70
2022-11-02T17:59:47.721Z,100331.59
2022-11-02T18:02:16.517Z,100333.98
2022-11-02T18:04:44.990Z,100334.30
2022-11-02T18:07:13.151Z,100333.78
2022-11-02T18:09:41.511Z,100335.45
2022-11-02T18:12:13.425Z,100337.83
2022-11-02T18:14:42.303Z,100342.20
2022-11-02T18:17:10.889Z,100343.80
2022-11-02T18:19:42.257Z,100346.15
2022-11-02T18:22:12.894Z,100345.69
2022-11-02T18:24:41.151Z,100344.52
2022-11-02T18:27:09.521Z,100349.34
2022-11-02T18:29:38.180Z,100347.55
2022-11-02T18:32:12.262Z,100350.05
2022-11-02T18:34:40.756Z,100353.61
2022-11-02T18:37:12.489Z,100352.66
2022-11-02T18:39:41.190Z,100351.91
2022-11-02T18:42:09.458Z,100354.02
2022-11-02T18:44:37.773Z,100355.40
2022-11-02T18:47:09.636Z,100352.86
2022-11-02T18:49:38.893Z,100351.58
2022-11-02T18:52:07.448Z,100350.59
2022-11-02T18:54:35.814Z,100357.05
2022-11-02T18:57:04.452Z,100354.05
2022-11-02T18:59:34.566Z,100352.95
2022-11-02T19:02:06.839Z,100351.23
2022-11-02T19:04:35.187Z,100349.06
2022-11-02T19:07:22.126Z,100349.79
2022-11-02T19:09:50.484Z,100350.38
2022-11-02T19:12:24.100Z,100350.25
2022-11-02T19:14:54.637Z,100349.70
2022-11-02T19:17:25.023Z,100350.31
2022-11-02T19:19:54.256Z,100349.21
2022-11-02T19:22:24.872Z,100353.11
2022-11-02T19:24:53.248Z,100354.65
2022-11-02T19:27:23.849Z,100360.08
2022-11-02T19:29:52.838Z,100361.48
2022-11-02T19:32:21.728Z,100365.02
2022-11-02T19:34:49.978Z,100360.23
2022-11-02T19:37:18.375Z,100365.61
2022-11-02T19:39:46.688Z,100370.73
2022-11-02T19:42:15.021Z,100371.42
2022-11-02T19:44:44.716Z,100369.35
2022-11-02T19:47:13.225Z,100371.65
2022-11-02T19:49:41.807Z,100372.64
2022-11-02T19:52:10.495Z,100373.16
2022-11-02T19:54:38.936Z,100369.64
2022-11-02T19:57:07.287Z,100373.20
2022-11-02T19:59:35.543Z,100374.13
2022-11-02T20:02:04.065Z,100373.67
2022-11-02T20:04:38.036Z,100378.31
2022-11-02T20:07:09.701Z,100379.98
2022-11-02T20:09:38.328Z,100382.87
2022-11-02T20:12:07.915Z,100386.79
2022-11-02T20:14:40.973Z,100386.98
2022-11-02T20:17:30.090Z,100387.16
2022-11-02T20:19:59.357Z,100389.55
2022-11-02T20:22:27.905Z,100392.56
2022-11-02T20:24:56.147Z,100394.37
2022-11-02T20:27:24.849Z,100396.16
2022-11-02T20:29:54.198Z,100402.61
2022-11-02T20:32:22.744Z,100402.87
2022-11-02T20:34:51.688Z,100404.45
2022-11-02T20:37:19.995Z,100409.12
2022-11-02T20:39:59.193Z,100406.33
2022-11-02T20:42:30.575Z,100405.42
2022-11-02T20:44:59.974Z,100408.61
2022-11-02T20:47:30.953Z,100408.34
2022-11-02T20:49:59.766Z,100411.23
2022-11-02T20:52:28.152Z,100414.30
2022-11-02T20:54:57.256Z,100412.30
2022-11-02T20:57:29.016Z,100413.15
2022-11-02T20:59:57.535Z,100421.80
2022-11-02T21:02:26.891Z,100420.33
2022-11-02T21:04:55.362Z,100421.23
2022-11-02T21:07:24.331Z,100418.17
2022-11-02T21:09:52.517Z,100420.20
2022-11-02T21:12:39.797Z,100421.10
2022-11-02T21:15:08.948Z,100421.30
2022-11-02T21:17:37.298Z,100427.84
2022-11-02T21:20:32.622Z,100426.27
2022-11-02T21:22:57.955Z,100429.27
2022-11-02T21:25:26.388Z,100428.02
2022-11-02T21:27:55.877Z,100431.11
2022-11-02T21:30:24.167Z,100431.98
2022-11-02T21:32:53.630Z,100434.47
2022-11-02T21:35:22.605Z,100433.80
2022-11-02T21:37:50.893Z,100432.17
2022-11-02T21:40:19.195Z,100440.08
2022-11-02T21:42:48.569Z,100443.92
2022-11-02T21:45:18.319Z,100444.83
2022-11-02T21:47:49.847Z,100442.69
2022-11-02T21:50:18.842Z,100445.98
2022-11-02T21:52:47.670Z,100444.17
2022-11-02T21:55:16.197Z,100450.10
2022-11-02T21:57:44.964Z,100449.34
2022-11-02T22:00:15.087Z,100452.52
2022-11-02T22:02:43.839Z,100450.24
2022-11-02T22:05:32.051Z,100450.59
2022-11-02T22:08:19.019Z,100452.63
2022-11-02T22:10:47.380Z,100452.91
2022-11-02T22:13:34.609Z,100448.44
2022-11-02T22:16:24.826Z,100447.77
2022-11-02T22:18:55.318Z,100446.21
2022-11-02T22:21:25.794Z,100451.67
2022-11-02T22:23:54.429Z,100453.14
2022-11-02T22:26:26.039Z,100454.89
2022-11-02T22:28:57.422Z,100455.46
2022-11-02T22:31:26.696Z,100462.45
2022-11-02T22:33:57.669Z,100468.77
2022-11-02T22:36:27.390Z,100471.23
2022-11-02T22:38:57.942Z,100473.73
2022-11-02T22:41:38.764Z,100473.70
2022-11-02T22:44:09.848Z,100473.35
2022-11-02T22:46:40.959Z,100474.58
2022-11-02T22:49:12.846Z,100476.55
2022-11-02T22:51:46.447Z,100473.45
2022-11-02T22:54:22.352Z,100476.48
2022-11-02T22:56:58.620Z,100474.44
2022-11-02T22:59:28.792Z,100476.21
2022-11-02T23:01:59.764Z,100477.61
2022-11-02T23:04:29.701Z,100473.63
2022-11-02T23:07:00.719Z,100473.08
2022-11-02T23:09:28.976Z,100474.81
2022-11-02T23:11:57.367Z,100470.64
2022-11-02T23:14:26.349Z,100470.48
2022-11-02T23:16:58.421Z,100471.56
2022-11-02T23:19:38.579Z,100475.60
2022-11-02T23:22:32.169Z,100470.77
2022-11-02T23:25:19.574Z,100469.77
2022-11-02T23:28:14.607Z,100476.44
2022-11-02T23:31:02.849Z,100479.92
2022-11-02T23:33:32.972Z,100477.49
2022-11-02T23:36:12.759Z,100476.45
2022-11-02T23:39:03.001Z,100478.75
2022-11-02T23:41:33.705Z,100478.82
2022-11-02T23:44:19.155Z,100476.08
2022-11-02T23:46:51.242Z,100478.10
2022-11-02T23:49:19.996Z,100474.52
2022-11-02T23:52:07.047Z,100471.96
2022-11-02T23:54:55.833Z,100473.58
2022-11-02T23:57:25.712Z,100467.00
2022-11-02T23:59:54.400Z,100461.77
